WetterOnline ( https://www.wetteronline.ch )

Wetter aktuell Usedom

Aktuelles Wetter: Ueckermünde (7m)

6-stündlich | Neueste Meldungen
Ortszeit Temperatur Wetter
Mo, 28.09. 14:00 15.8° C leicht bewölkt
Mo, 28.09. 8:00 10.1° C bedeckt
Mo, 28.09. 2:00 10.1° C leichter Regen
So, 27.09. 20:00 9.8° C bedeckt
So, 27.09. 14:00 10.0° C Sprühregen
So, 27.09. 8:00 10.1° C Sprühregen
So, 27.09. 2:00 10.9° C wolkig
Sa, 26.09. 20:00 17.6° C wolkig
Ortszeit Temperatur Wetter
Mo, 28.09. 14:30 17.3° C leicht bewölkt
Mo, 28.09. 14:20 17.3° C leicht bewölkt
Mo, 28.09. 14:10 16.8° C leicht bewölkt
Mo, 28.09. 14:00 15.8° C leicht bewölkt
Mo, 28.09. 13:50 15.8° C leicht bewölkt
Mo, 28.09. 13:40 16.2° C leicht bewölkt
Mo, 28.09. 13:30 16.3° C fast wolkenlos
Mo, 28.09. 13:00 16.4° C leicht bewölkt
Mo, 28.09. 12:30 15.8° C fast wolkenlos
Mo, 28.09. 12:00 15.1° C wolkenlos
Mo, 28.09. 11:30 14.4° C wolkenlos
Ortszeit Relative Feuchte Sichtweite
Mo, 28.09. 14:00 64% >70 km
Mo, 28.09. 8:00 95% 30 km
Mo, 28.09. 2:00 96% 20 km
So, 27.09. 20:00 95% >70 km
So, 27.09. 14:00 95% 11 km
So, 27.09. 8:00 96% 11 km
So, 27.09. 2:00 86% >70 km
Sa, 26.09. 20:00 93% 27 km
Ortszeit Relative Feuchte Sichtweite
Mo, 28.09. 14:30 61% >70 km
Mo, 28.09. 14:20 61% -
Mo, 28.09. 14:10 59% -
Mo, 28.09. 14:00 64% >70 km
Mo, 28.09. 13:50 64% -
Mo, 28.09. 13:40 60% -
Mo, 28.09. 13:30 65% 65 km
Mo, 28.09. 13:00 66% >70 km
Mo, 28.09. 12:30 67% 45 km
Mo, 28.09. 12:00 66% >70 km
Mo, 28.09. 11:30 72% 65 km
Ortszeit Niederschlagsmenge Niederschlagsart
Mo, 28.09. 14:00 0.0 l/m2 in 6 Std. -
Mo, 28.09. 8:00 0.9 l/m2 in 12 Std. Regen
Mo, 28.09. 2:00 0.6 l/m2 in 6 Std. Regen
So, 27.09. 20:00 8 l/m2 in 12 Std. Regen
So, 27.09. 14:00 6 l/m2 in 6 Std. Regen
So, 27.09. 8:00 2 l/m2 in 12 Std. Regen
So, 27.09. 2:00 0.0 l/m2 in 6 Std. -
Sa, 26.09. 20:00 12 l/m2 in 12 Std. Regen
Ortszeit Niederschlagsmenge Niederschlagsart
Mo, 28.09. 14:30 0.0 l/m2 in 1 Std. -
Mo, 28.09. 14:20 keine Meldung -
Mo, 28.09. 14:10 keine Meldung -
Mo, 28.09. 14:00 0.0 l/m2 in 1 Std. -
Mo, 28.09. 13:50 keine Meldung -
Mo, 28.09. 13:40 keine Meldung -
Mo, 28.09. 13:30 0.0 l/m2 in 1 Std. -
Mo, 28.09. 13:00 0.0 l/m2 in 1 Std. -
Mo, 28.09. 12:30 0.0 l/m2 in 1 Std. -
Mo, 28.09. 12:00 0.0 l/m2 in 1 Std. -
Mo, 28.09. 11:30 0.0 l/m2 in 1 Std. -
Ortszeit Stärke Spitze Richtung
km/h Bft. km/h Grad Sektor
Mo, 28.09. 14:00 14 3 29 170° S
Mo, 28.09. 8:00 13 3 22 160° S
Mo, 28.09. 2:00 15 3 24 210° SW
So, 27.09. 20:00 13 3 28 240° SW
So, 27.09. 14:00 15 3 24 240° SW
So, 27.09. 8:00 4 1 18 220° SW
So, 27.09. 2:00 11 2 47 150° SO
Sa, 26.09. 20:00 15 3 52 90° O
Ortszeit Stärke Spitze Richtung
km/h Bft. km/h Grad Sektor
Mo, 28.09. 14:30 13 3 22 180° S
Mo, 28.09. 14:20 13 3 - 180° S
Mo, 28.09. 14:10 11 2 - 200° S
Mo, 28.09. 14:00 14 3 22 170° S
Mo, 28.09. 13:50 14 3 - 170° S
Mo, 28.09. 13:40 14 3 - 180° S
Mo, 28.09. 13:30 14 3 22 170° S
Mo, 28.09. 13:00 13 3 28 190° S
Mo, 28.09. 12:30 13 3 24 160° S
Mo, 28.09. 12:00 14 3 22 170° S
Mo, 28.09. 11:30 13 3 22 160° S
Ortszeit Untergrenze Bedeckung Gattung
total tief tief mittel hoch
Mo, 28.09. 14:00 900 m 2/8 1/8 - - -
Mo, 28.09. 8:00 1500 m 8/8 8/8 - - -
Mo, 28.09. 2:00 150 m 8/8 8/8 - - -
So, 27.09. 20:00 240 m 8/8 8/8 - - -
So, 27.09. 14:00 150 m 7/8 7/8 - - -
So, 27.09. 8:00 720 m 8/8 8/8 - - -
So, 27.09. 2:00 510 m 8/8 3/8 - - -
Sa, 26.09. 20:00 540 m 6/8 3/8 - - -
Ortszeit Bedeckungsgrad in Achtel und Wolkenuntergrenze
Mo, 28.09. 14:30 2(1050m)
Mo, 28.09. 14:20 2(1050m)
Mo, 28.09. 14:10 2(1080m)
Mo, 28.09. 14:00 1(900m)
Mo, 28.09. 13:50 1(900m) 2(1110m)
Mo, 28.09. 13:40 2(900m)
Mo, 28.09. 13:30 1(870m)
Mo, 28.09. 13:00 2(810m)
Mo, 28.09. 12:30 1(720m)
Mo, 28.09. 12:00 keine Wolken
Mo, 28.09. 11:30 keine Wolken
Ortszeit Luftdruck NN (hPa) Tendenz (hPa in 3 Std.)
Mo, 28.09. 14:00 1013 + 0,6
Mo, 28.09. 8:00 1011 + 2,0
Mo, 28.09. 2:00 1008 + 0,9
So, 27.09. 20:00 1006 + 1,4
So, 27.09. 14:00 1003 + 0,7
So, 27.09. 8:00 1002 + 1,3
So, 27.09. 2:00 999 + 2,6
Sa, 26.09. 20:00 992 + 1,9
Ortszeit Luftdruck NN (hPa) Tendenz (hPa in 3 Std.)
Mo, 28.09. 14:30 1012 + 0,2
Mo, 28.09. 14:20 1012 keine Meldung
Mo, 28.09. 14:10 1012 keine Meldung
Mo, 28.09. 14:00 1013 + 0,6
Mo, 28.09. 13:50 1013 keine Meldung
Mo, 28.09. 13:40 1013 keine Meldung
Mo, 28.09. 13:30 1013 + 0,9
Mo, 28.09. 13:00 1013 + 0,9
Mo, 28.09. 12:30 1012 + 0,9
Mo, 28.09. 12:00 1012 + 0,9
Mo, 28.09. 11:30 1012 + 1,0
Ortszeit Schneehöhe (cm)
Mo, 28.09. 14:00 -
Mo, 28.09. 8:00 -
Mo, 28.09. 2:00 -
So, 27.09. 20:00 -
So, 27.09. 14:00 -
So, 27.09. 8:00 -
So, 27.09. 2:00 -
Sa, 26.09. 20:00 -
Ortszeit Schneehöhe (cm)
Mo, 28.09. 14:30 -
Mo, 28.09. 14:20 -
Mo, 28.09. 14:10 -
Mo, 28.09. 14:00 -
Mo, 28.09. 13:50 -
Mo, 28.09. 13:40 -
Mo, 28.09. 13:30 -
Mo, 28.09. 13:00 -
Mo, 28.09. 12:30 -
Mo, 28.09. 12:00 -
Mo, 28.09. 11:30 -
Link zu dieser Seite / Seite empfehlen

Das Wetter in ...